M I D A S
Marine Information and Data Acquisition System
Tripno 1341 of the Zeeleeuw from 2007-04-04 06:48:28 to 2007-04-04 10:23:54
Back to CruiseResearch ActivitiesStationsMapUnderway DataData graphs

EquipmentUnitsComments
TimeDGPSUTC
LatitudeDGPSDM.mWGS84
LongitudeDGPSDM.mWGS84
SpeedMeteo Stationm/sRelative wind speed
DirectionMeteo StationdegRelative wind direction
TemperatureMeteo Stationdeg CelciusAir temperature
PressureMeteo StationPaAtmospheric pressure
HumidityMeteo Station%Relative humidity
Missing or incorrect values are displayed as -999
Metereological data collected by the RV Zeeleeuw from 2007-04-04 06:29:56 to 2007-04-04 15:23:51
Time Latitude Longitude Speed Direction Temperature Pressure Humidity
2007-04-04 06:31 51°13.619 2°56.036 -999 -999 -999 -999 -999
2007-04-04 06:32 51°13.649 2°55.922 -999 -999 -999 -999 -999
2007-04-04 06:33 51°13.686 2°55.815 -999 -999 -999 -999 -999
2007-04-04 06:34 51°13.707 2°55.733 -999 -999 -999 -999 -999
2007-04-04 06:35 51°13.712 2°55.713 -999 -999 -999 -999 -999
2007-04-04 06:36 51°13.712 2°55.719 -999 -999 -999 -999 -999
2007-04-04 06:37 51°13.725 2°55.715 -999 -999 -999 -999 -999
2007-04-04 06:38 51°13.791 2°55.669 -999 -999 -999 -999 -999
2007-04-04 06:39 51°13.9 2°55.588 -999 -999 -999 -999 -999
2007-04-04 06:40 51°14.023 2°55.498 -999 -999 -999 -999 -999
2007-04-04 06:41 51°14.146 2°55.401 -999 -999 -999 -999 -999
2007-04-04 06:42 51°14.254 2°55.262 -999 -999 -999 -999 -999
2007-04-04 06:43 51°14.361 2°55.07 -999 -999 -999 -999 -999
2007-04-04 06:44 51°14.501 2°54.824 -999 -999 -999 -999 -999
2007-04-04 06:45 51°14.661 2°54.588 -999 -999 -999 -999 -999
2007-04-04 06:46 51°14.825 2°54.355 -999 -999 -999 -999 -999
2007-04-04 06:47 51°14.987 2°54.132 -999 -999 -999 -999 -999
2007-04-04 06:48 51°15.166 2°53.957 -999 -999 -999 -999 -999
2007-04-04 06:49 51°15.347 2°53.775 -999 -999 -999 -999 -999
2007-04-04 06:50 51°15.534 2°53.598 -999 -999 -999 -999 -999
2007-04-04 06:51 51°15.727 2°53.431 -999 -999 -999 -999 -999
2007-04-04 06:52 51°15.919 2°53.264 -999 -999 -999 -999 -999
2007-04-04 06:53 51°16.112 2°53.127 -999 -999 -999 -999 -999
2007-04-04 06:54 51°16.305 2°52.99 -999 -999 -999 -999 -999
2007-04-04 06:55 51°16.498 2°52.853 -999 -999 -999 -999 -999
2007-04-04 06:56 51°16.696 2°52.729 -999 -999 -999 -999 -999
2007-04-04 06:57 51°16.89 2°52.617 -999 -999 -999 -999 -999
2007-04-04 06:58 51°17.083 2°52.502 -999 -999 -999 -999 -999
2007-04-04 06:59 51°17.277 2°52.385 -999 -999 -999 -999 -999
2007-04-04 07:00 51°17.468 2°52.247 -999 -999 -999 -999 -999
2007-04-04 07:01 51°17.652 2°52.081 -999 -999 -999 -999 -999
2007-04-04 07:02 51°17.837 2°51.907 -999 -999 -999 -999 -999
2007-04-04 07:03 51°18.022 2°51.731 -999 -999 -999 -999 -999
2007-04-04 07:04 51°18.211 2°51.552 -999 -999 -999 -999 -999
2007-04-04 07:05 51°18.388 2°51.341 -999 -999 -999 -999 -999
2007-04-04 07:06 51°18.531 2°51.064 -999 -999 -999 -999 -999
2007-04-04 07:07 51°18.621 2°50.715 -999 -999 -999 -999 -999
2007-04-04 07:08 51°18.705 2°50.362 -999 -999 -999 -999 -999
2007-04-04 07:09 51°18.784 2°50.008 -999 -999 -999 -999 -999
2007-04-04 07:10 51°18.849 2°49.646 -999 -999 -999 -999 -999
2007-04-04 07:11 51°18.916 2°49.283 -999 -999 -999 -999 -999
2007-04-04 07:12 51°18.992 2°48.923 -999 -999 -999 -999 -999
2007-04-04 07:13 51°19.063 2°48.554 -999 -999 -999 -999 -999
2007-04-04 07:14 51°19.129 2°48.188 -999 -999 -999 -999 -999
2007-04-04 07:15 51°19.199 2°47.819 -999 -999 -999 -999 -999
2007-04-04 07:16 51°19.267 2°47.448 -999 -999 -999 -999 -999
2007-04-04 07:17 51°19.335 2°47.073 -999 -999 -999 -999 -999
2007-04-04 07:18 51°19.401 2°46.698 -999 -999 -999 -999 -999
2007-04-04 07:19 51°19.471 2°46.326 -999 -999 -999 -999 -999
2007-04-04 07:20 51°19.538 2°45.958 -999 -999 -999 -999 -999
2007-04-04 07:21 51°19.607 2°45.59 -999 -999 -999 -999 -999
2007-04-04 07:22 51°19.679 2°45.222 -999 -999 -999 -999 -999
2007-04-04 07:23 51°19.749 2°44.856 -999 -999 -999 -999 -999
2007-04-04 07:24 51°19.819 2°44.487 -999 -999 -999 -999 -999
2007-04-04 07:25 51°19.888 2°44.117 -999 -999 -999 -999 -999
2007-04-04 07:26 51°19.959 2°43.743 -999 -999 -999 -999 -999
2007-04-04 07:27 51°20.03 2°43.37 -999 -999 -999 -999 -999
2007-04-04 07:28 51°20.098 2°42.996 -999 -999 -999 -999 -999
2007-04-04 07:29 51°20.166 2°42.625 -999 -999 -999 -999 -999
2007-04-04 07:30 51°20.241 2°42.259 -999 -999 -999 -999 -999
2007-04-04 07:31 51°20.307 2°41.889 -999 -999 -999 -999 -999
2007-04-04 07:32 51°20.382 2°41.517 -999 -999 -999 -999 -999
2007-04-04 07:33 51°20.452 2°41.143 -999 -999 -999 -999 -999
2007-04-04 07:34 51°20.525 2°40.77 -999 -999 -999 -999 -999
2007-04-04 07:35 51°20.596 2°40.398 -999 -999 -999 -999 -999
2007-04-04 07:36 51°20.691 2°40.05 -999 -999 -999 -999 -999
2007-04-04 07:37 51°20.871 2°39.855 -999 -999 -999 -999 -999
2007-04-04 07:38 51°21.071 2°39.851 -999 -999 -999 -999 -999
2007-04-04 07:39 51°21.256 2°39.861 -999 -999 -999 -999 -999
2007-04-04 07:40 51°21.452 2°39.857 -999 -999 -999 -999 -999
2007-04-04 07:41 51°21.65 2°39.854 -999 -999 -999 -999 -999
2007-04-04 07:42 51°21.843 2°39.84 -999 -999 -999 -999 -999
2007-04-04 07:43 51°22.038 2°39.826 -999 -999 -999 -999 -999
2007-04-04 07:44 51°22.228 2°39.801 -999 -999 -999 -999 -999
2007-04-04 07:45 51°22.387 2°39.585 -999 -999 -999 -999 -999
2007-04-04 07:46 51°22.436 2°39.212 -999 -999 -999 -999 -999
2007-04-04 07:47 51°22.483 2°38.833 -999 -999 -999 -999 -999
2007-04-04 07:48 51°22.548 2°38.457 -999 -999 -999 -999 -999
2007-04-04 07:49 51°22.639 2°38.099 -999 -999 -999 -999 -999
2007-04-04 07:50 51°22.736 2°37.744 -999 -999 -999 -999 -999
2007-04-04 07:51 51°22.831 2°37.394 -999 -999 -999 -999 -999
2007-04-04 07:52 51°22.921 2°37.042 -999 -999 -999 -999 -999
2007-04-04 07:53 51°23.014 2°36.691 -999 -999 -999 -999 -999
2007-04-04 07:54 51°23.11 2°36.344 -999 -999 -999 -999 -999
2007-04-04 07:55 51°23.203 2°35.992 -999 -999 -999 -999 -999
2007-04-04 07:56 51°23.297 2°35.648 -999 -999 -999 -999 -999
2007-04-04 07:57 51°23.388 2°35.306 -999 -999 -999 -999 -999
2007-04-04 07:58 51°23.476 2°34.959 -999 -999 -999 -999 -999
2007-04-04 07:59 51°23.569 2°34.62 -999 -999 -999 -999 -999
2007-04-04 08:00 51°23.726 2°34.382 -999 -999 -999 -999 -999
2007-04-04 08:01 51°23.918 2°34.314 -999 -999 -999 -999 -999
2007-04-04 08:02 51°24.107 2°34.291 -999 -999 -999 -999 -999
2007-04-04 08:03 51°24.293 2°34.262 -999 -999 -999 -999 -999
2007-04-04 08:04 51°24.486 2°34.229 -999 -999 -999 -999 -999
2007-04-04 08:05 51°24.671 2°34.192 -999 -999 -999 -999 -999
2007-04-04 08:06 51°24.859 2°34.156 -999 -999 -999 -999 -999
2007-04-04 08:07 51°25.053 2°34.121 -999 -999 -999 -999 -999
2007-04-04 08:08 51°25.239 2°34.097 -999 -999 -999 -999 -999
2007-04-04 08:09 51°25.431 2°34.084 -999 -999 -999 -999 -999
2007-04-04 08:10 51°25.624 2°34.069 -999 -999 -999 -999 -999
2007-04-04 08:11 51°25.815 2°34.049 -999 -999 -999 -999 -999
2007-04-04 08:12 51°26.007 2°34.017 -999 -999 -999 -999 -999
2007-04-04 08:13 51°26.196 2°34.018 -999 -999 -999 -999 -999
2007-04-04 08:14 51°26.387 2°34.028 -999 -999 -999 -999 -999
2007-04-04 08:15 51°26.578 2°34.038 -999 -999 -999 -999 -999
2007-04-04 08:16 51°26.769 2°34.043 -999 -999 -999 -999 -999
2007-04-04 08:17 51°26.962 2°34.053 -999 -999 -999 -999 -999
2007-04-04 08:18 51°27.153 2°34.061 -999 -999 -999 -999 -999
2007-04-04 08:19 51°27.336 2°34.064 -999 -999 -999 -999 -999
2007-04-04 08:20 51°27.523 2°34.069 -999 -999 -999 -999 -999
2007-04-04 08:21 51°27.702 2°34.066 -999 -999 -999 -999 -999
2007-04-04 08:22 51°27.884 2°34.061 -999 -999 -999 -999 -999
2007-04-04 08:23 51°28.068 2°34.067 -999 -999 -999 -999 -999
2007-04-04 08:24 51°28.251 2°34.066 -999 -999 -999 -999 -999
2007-04-04 08:25 51°28.435 2°34.071 -999 -999 -999 -999 -999
2007-04-04 08:26 51°28.622 2°34.074 -999 -999 -999 -999 -999
2007-04-04 08:27 51°28.801 2°34.078 -999 -999 -999 -999 -999
2007-04-04 08:28 51°28.983 2°34.059 -999 -999 -999 -999 -999
2007-04-04 08:29 51°29.165 2°33.99 -999 -999 -999 -999 -999
2007-04-04 08:30 51°29.345 2°33.904 -999 -999 -999 -999 -999
2007-04-04 08:31 51°29.529 2°33.815 -999 -999 -999 -999 -999
2007-04-04 08:32 51°29.704 2°33.677 -999 -999 -999 -999 -999
2007-04-04 08:33 51°29.876 2°33.479 -999 -999 -999 -999 -999
2007-04-04 08:34 51°30.047 2°33.291 -999 -999 -999 -999 -999
2007-04-04 08:35 51°30.227 2°33.115 -999 -999 -999 -999 -999
2007-04-04 08:36 51°30.398 2°32.942 -999 -999 -999 -999 -999
2007-04-04 08:37 51°30.572 2°32.771 -999 -999 -999 -999 -999
2007-04-04 08:38 51°30.748 2°32.601 -999 -999 -999 -999 -999
2007-04-04 08:39 51°30.921 2°32.433 -999 -999 -999 -999 -999
2007-04-04 08:40 51°31.095 2°32.256 -999 -999 -999 -999 -999
2007-04-04 08:41 51°31.242 2°32.096 -999 -999 -999 -999 -999
2007-04-04 08:42 51°31.322 2°31.985 -999 -999 -999 -999 -999
2007-04-04 08:43 51°31.41 2°31.947 -999 -999 -999 -999 -999
2007-04-04 08:44 51°31.464 2°31.99 -999 -999 -999 -999 -999
2007-04-04 08:45 51°31.523 2°32.054 -999 -999 -999 -999 -999
2007-04-04 08:46 51°31.585 2°32.134 -999 -999 -999 -999 -999
2007-04-04 08:47 51°31.65 2°32.217 -999 -999 -999 -999 -999
2007-04-04 08:48 51°31.705 2°32.301 -999 -999 -999 -999 -999
2007-04-04 08:49 51°31.749 2°32.398 -999 -999 -999 -999 -999
2007-04-04 08:50 51°31.753 2°32.445 -999 -999 -999 -999 -999
2007-04-04 08:51 51°31.724 2°32.434 -999 -999 -999 -999 -999
2007-04-04 08:52 51°31.686 2°32.392 -999 -999 -999 -999 -999
2007-04-04 08:53 51°31.649 2°32.339 -999 -999 -999 -999 -999
2007-04-04 08:54 51°31.614 2°32.287 -999 -999 -999 -999 -999
2007-04-04 08:55 51°31.578 2°32.235 -999 -999 -999 -999 -999
2007-04-04 08:56 51°31.542 2°32.188 -999 -999 -999 -999 -999
2007-04-04 08:57 51°31.501 2°32.149 -999 -999 -999 -999 -999
2007-04-04 08:58 51°31.468 2°32.176 -999 -999 -999 -999 -999
2007-04-04 08:59 51°31.525 2°32.161 -999 -999 -999 -999 -999
2007-04-04 09:00 51°31.679 2°32.186 -999 -999 -999 -999 -999
2007-04-04 09:01 51°31.842 2°32.296 -999 -999 -999 -999 -999
2007-04-04 09:02 51°32 2°32.43 -999 -999 -999 -999 -999
2007-04-04 09:03 51°32.156 2°32.558 -999 -999 -999 -999 -999
2007-04-04 09:04 51°32.312 2°32.688 -999 -999 -999 -999 -999
2007-04-04 09:05 51°32.461 2°32.847 -999 -999 -999 -999 -999
2007-04-04 09:06 51°32.574 2°33.04 -999 -999 -999 -999 -999
2007-04-04 09:07 51°32.632 2°33.167 -999 -999 -999 -999 -999
2007-04-04 09:08 51°32.656 2°33.214 -999 -999 -999 -999 -999
2007-04-04 09:09 51°32.666 2°33.264 -999 -999 -999 -999 -999
2007-04-04 09:10 51°32.696 2°33.283 -999 -999 -999 -999 -999
2007-04-04 09:11 51°32.685 2°33.277 -999 -999 -999 -999 -999
2007-04-04 09:12 51°32.669 2°33.261 -999 -999 -999 -999 -999
2007-04-04 09:13 51°32.652 2°33.239 -999 -999 -999 -999 -999
2007-04-04 09:14 51°32.633 2°33.21 -999 -999 -999 -999 -999
2007-04-04 09:15 51°32.617 2°33.184 -999 -999 -999 -999 -999
2007-04-04 09:16 51°32.597 2°33.166 -999 -999 -999 -999 -999
2007-04-04 09:17 51°32.571 2°33.156 -999 -999 -999 -999 -999
2007-04-04 09:18 51°32.546 2°33.157 -999 -999 -999 -999 -999
2007-04-04 09:19 51°32.577 2°33.164 -999 -999 -999 -999 -999
2007-04-04 09:20 51°32.703 2°33.24 -999 -999 -999 -999 -999
2007-04-04 09:21 51°32.864 2°33.313 -999 -999 -999 -999 -999
2007-04-04 09:22 51°33.017 2°33.398 -999 -999 -999 -999 -999
2007-04-04 09:23 51°33.176 2°33.504 -999 -999 -999 -999 -999
2007-04-04 09:24 51°33.325 2°33.638 -999 -999 -999 -999 -999
2007-04-04 09:25 51°33.411 2°33.742 -999 -999 -999 -999 -999
2007-04-04 09:26 51°33.454 2°33.837 -999 -999 -999 -999 -999
2007-04-04 09:27 51°33.472 2°33.923 -999 -999 -999 -999 -999
2007-04-04 09:28 51°33.509 2°33.907 -999 -999 -999 -999 -999
2007-04-04 09:29 51°33.521 2°33.93 -999 -999 -999 -999 -999
2007-04-04 09:30 51°33.499 2°33.929 -999 -999 -999 -999 -999
2007-04-04 09:31 51°33.471 2°33.9 -999 -999 -999 -999 -999
2007-04-04 09:32 51°33.438 2°33.856 -999 -999 -999 -999 -999
2007-04-04 09:33 51°33.404 2°33.799 -999 -999 -999 -999 -999
2007-04-04 09:34 51°33.372 2°33.781 -999 -999 -999 -999 -999
2007-04-04 09:35 51°33.398 2°33.809 -999 -999 -999 -999 -999
2007-04-04 09:36 51°33.504 2°33.863 -999 -999 -999 -999 -999
2007-04-04 09:37 51°33.634 2°33.916 -999 -999 -999 -999 -999
2007-04-04 09:38 51°33.793 2°33.946 -999 -999 -999 -999 -999
2007-04-04 09:39 51°33.964 2°33.976 -999 -999 -999 -999 -999
2007-04-04 09:40 51°34.129 2°34.004 -999 -999 -999 -999 -999
2007-04-04 09:41 51°34.22 2°34.079 -999 -999 -999 -999 -999
2007-04-04 09:42 51°34.287 2°34.141 -999 -999 -999 -999 -999
2007-04-04 09:43 51°34.344 2°34.2 -999 -999 -999 -999 -999
2007-04-04 09:44 51°34.369 2°34.204 -999 -999 -999 -999 -999
2007-04-04 09:45 51°34.353 2°34.212 -999 -999 -999 -999 -999
2007-04-04 09:46 51°34.32 2°34.19 -999 -999 -999 -999 -999
2007-04-04 09:47 51°34.284 2°34.15 -999 -999 -999 -999 -999
2007-04-04 09:48 51°34.243 2°34.105 -999 -999 -999 -999 -999
2007-04-04 09:49 51°34.164 2°34.054 -999 -999 -999 -999 -999
2007-04-04 09:50 51°34.066 2°33.844 -999 -999 -999 -999 -999
2007-04-04 09:51 51°33.906 2°33.529 -999 -999 -999 -999 -999
2007-04-04 09:52 51°33.74 2°33.203 -999 -999 -999 -999 -999
2007-04-04 09:53 51°33.585 2°32.878 -999 -999 -999 -999 -999
2007-04-04 09:54 51°33.462 2°32.53 -999 -999 -999 -999 -999
2007-04-04 09:55 51°33.341 2°32.186 -999 -999 -999 -999 -999
2007-04-04 09:56 51°33.275 2°31.892 -999 -999 -999 -999 -999
2007-04-04 09:57 51°33.334 2°31.821 -999 -999 -999 -999 -999
2007-04-04 09:58 51°33.382 2°31.884 -999 -999 -999 -999 -999
2007-04-04 09:59 51°33.46 2°31.981 -999 -999 -999 -999 -999
2007-04-04 10:00 51°33.488 2°32.07 -999 -999 -999 -999 -999
2007-04-04 10:01 51°33.491 2°32.088 -999 -999 -999 -999 -999
2007-04-04 10:02 51°33.475 2°32.076 -999 -999 -999 -999 -999
2007-04-04 10:03 51°33.459 2°32.069 -999 -999 -999 -999 -999
2007-04-04 10:04 51°33.528 2°32.066 -999 -999 -999 -999 -999
2007-04-04 10:05 51°33.688 2°32.13 -999 -999 -999 -999 -999
2007-04-04 10:06 51°33.856 2°32.226 -999 -999 -999 -999 -999
2007-04-04 10:07 51°34.029 2°32.327 -999 -999 -999 -999 -999
2007-04-04 10:08 51°34.17 2°32.451 -999 -999 -999 -999 -999
2007-04-04 10:09 51°34.239 2°32.517 -999 -999 -999 -999 -999
2007-04-04 10:10 51°34.299 2°32.585 -999 -999 -999 -999 -999
2007-04-04 10:11 51°34.338 2°32.641 -999 -999 -999 -999 -999
2007-04-04 10:12 51°34.342 2°32.65 -999 -999 -999 -999 -999
2007-04-04 10:13 51°34.326 2°32.637 -999 -999 -999 -999 -999
2007-04-04 10:14 51°34.304 2°32.614 -999 -999 -999 -999 -999
2007-04-04 10:15 51°34.293 2°32.602 -999 -999 -999 -999 -999
2007-04-04 10:16 51°34.366 2°32.623 -999 -999 -999 -999 -999
2007-04-04 10:17 51°34.493 2°32.693 -999 -999 -999 -999 -999
2007-04-04 10:18 51°34.646 2°32.797 -999 -999 -999 -999 -999
2007-04-04 10:19 51°34.812 2°32.929 -999 -999 -999 -999 -999
2007-04-04 10:20 51°34.961 2°33.106 -999 -999 -999 -999 -999
2007-04-04 10:21 51°35.074 2°33.32 -999 -999 -999 -999 -999
2007-04-04 10:22 51°35.138 2°33.471 -999 -999 -999 -999 -999
2007-04-04 10:23 51°35.191 2°33.59 -999 -999 -999 -999 -999
2007-04-04 10:24 51°35.199 2°33.656 -999 -999 -999 -999 -999
2007-04-04 10:25 51°35.172 2°33.649 -999 -999 -999 -999 -999
2007-04-04 10:26 51°35.136 2°33.627 -999 -999 -999 -999 -999
2007-04-04 10:27 51°35.1 2°33.605 -999 -999 -999 -999 -999
2007-04-04 10:28 51°35.07 2°33.631 -999 -999 -999 -999 -999
2007-04-04 10:29 51°35.081 2°33.787 -999 -999 -999 -999 -999
2007-04-04 10:30 51°35.081 2°34.043 -999 -999 -999 -999 -999
2007-04-04 10:31 51°35.075 2°34.321 -999 -999 -999 -999 -999
2007-04-04 10:32 51°35.094 2°34.617 -999 -999 -999 -999 -999
2007-04-04 10:33 51°35.139 2°34.795 -999 -999 -999 -999 -999
2007-04-04 10:34 51°35.148 2°34.865 -999 -999 -999 -999 -999
2007-04-04 10:35 51°35.132 2°34.902 -999 -999 -999 -999 -999
2007-04-04 10:36 51°35.144 2°34.904 -999 -999 -999 -999 -999
2007-04-04 10:37 51°35.17 2°34.931 -999 -999 -999 -999 -999
2007-04-04 10:38 51°35.189 2°34.98 -999 -999 -999 -999 -999
2007-04-04 10:39 51°35.21 2°35.016 -999 -999 -999 -999 -999
2007-04-04 10:40 51°35.195 2°35.03 -999 -999 -999 -999 -999
2007-04-04 10:41 51°35.17 2°35.022 -999 -999 -999 -999 -999
2007-04-04 10:42 51°35.141 2°34.998 -999 -999 -999 -999 -999
2007-04-04 10:43 51°35.107 2°34.99 -999 -999 -999 -999 -999
2007-04-04 10:44 51°35.103 2°35.037 -999 -999 -999 -999 -999
2007-04-04 10:45 51°35.131 2°34.964 -999 -999 -999 -999 -999
2007-04-04 10:46 51°35.118 2°34.694 -999 -999 -999 -999 -999
2007-04-04 10:47 51°35.107 2°34.317 -999 -999 -999 -999 -999
2007-04-04 10:48 51°35.09 2°33.937 -999 -999 -999 -999 -999
2007-04-04 10:49 51°35.076 2°33.553 -999 -999 -999 -999 -999
2007-04-04 10:50 51°35.062 2°33.187 -999 -999 -999 -999 -999
2007-04-04 10:51 51°35.048 2°32.807 -999 -999 -999 -999 -999
2007-04-04 10:52 51°35.035 2°32.442 -999 -999 -999 -999 -999
2007-04-04 10:53 51°35.008 2°32.061 -999 -999 -999 -999 -999
2007-04-04 10:54 51°34.984 2°31.693 -999 -999 -999 -999 -999
2007-04-04 10:55 51°34.953 2°31.325 -999 -999 -999 -999 -999
2007-04-04 10:56 51°34.949 2°31.016 -999 -999 -999 -999 -999
2007-04-04 10:57 51°35.002 2°30.957 -999 -999 -999 -999 -999
2007-04-04 10:58 51°35.051 2°30.995 -999 -999 -999 -999 -999
2007-04-04 10:59 51°35.115 2°31.084 -999 -999 -999 -999 -999
2007-04-04 11:00 51°35.183 2°31.133 -999 -999 -999 -999 -999
2007-04-04 11:01 51°35.224 2°31.177 -999 -999 -999 -999 -999
2007-04-04 11:02 51°35.233 2°31.216 -999 -999 -999 -999 -999
2007-04-04 11:03 51°35.222 2°31.219 -999 -999 -999 -999 -999
2007-04-04 11:04 51°35.2 2°31.206 -999 -999 -999 -999 -999
2007-04-04 11:05 51°35.173 2°31.182 -999 -999 -999 -999 -999
2007-04-04 11:06 51°35.144 2°31.148 -999 -999 -999 -999 -999
2007-04-04 11:07 51°35.115 2°31.11 -999 -999 -999 -999 -999
2007-04-04 11:08 51°35.092 2°31.074 -999 -999 -999 -999 -999
2007-04-04 11:09 51°35.07 2°31.042 -999 -999 -999 -999 -999
2007-04-04 11:10 51°35.048 2°31.014 -999 -999 -999 -999 -999
2007-04-04 11:11 51°35.022 2°30.988 -999 -999 -999 -999 -999
2007-04-04 11:12 51°34.982 2°31.005 -999 -999 -999 -999 -999
2007-04-04 11:13 51°34.99 2°31.068 -999 -999 -999 -999 -999
2007-04-04 11:14 51°35.107 2°31.163 -999 -999 -999 -999 -999
2007-04-04 11:15 51°35.289 2°31.256 -999 -999 -999 -999 -999
2007-04-04 11:16 51°35.47 2°31.375 -999 -999 -999 -999 -999
2007-04-04 11:17 51°35.642 2°31.502 -999 -999 -999 -999 -999
2007-04-04 11:18 51°35.818 2°31.629 -999 -999 -999 -999 -999
2007-04-04 11:19 51°35.929 2°31.728 -999 -999 -999 -999 -999
2007-04-04 11:20 51°35.988 2°31.794 -999 -999 -999 -999 -999
2007-04-04 11:21 51°36.044 2°31.839 -999 -999 -999 -999 -999
2007-04-04 11:22 51°36.082 2°31.898 -999 -999 -999 -999 -999
2007-04-04 11:23 51°36.1 2°31.926 -999 -999 -999 -999 -999
2007-04-04 11:24 51°36.091 2°31.92 -999 -999 -999 -999 -999
2007-04-04 11:25 51°36.074 2°31.903 -999 -999 -999 -999 -999
2007-04-04 11:26 51°36.063 2°31.884 -999 -999 -999 -999 -999
2007-04-04 11:27 51°36.188 2°31.89 -999 -999 -999 -999 -999
2007-04-04 11:28 51°36.374 2°31.973 -999 -999 -999 -999 -999
2007-04-04 11:29 51°36.562 2°32.068 -999 -999 -999 -999 -999
2007-04-04 11:30 51°36.746 2°32.168 -999 -999 -999 -999 -999
2007-04-04 11:31 51°36.875 2°32.263 -999 -999 -999 -999 -999
2007-04-04 11:32 51°36.932 2°32.332 -999 -999 -999 -999 -999
2007-04-04 11:33 51°36.97 2°32.378 -999 -999 -999 -999 -999
2007-04-04 11:34 51°36.993 2°32.4 -999 -999 -999 -999 -999
2007-04-04 11:35 51°36.993 2°32.379 -999 -999 -999 -999 -999
2007-04-04 11:36 51°36.984 2°32.352 -999 -999 -999 -999 -999
2007-04-04 11:37 51°36.971 2°32.326 -999 -999 -999 -999 -999
2007-04-04 11:38 51°36.957 2°32.303 -999 -999 -999 -999 -999
2007-04-04 11:39 51°36.938 2°32.284 -999 -999 -999 -999 -999
2007-04-04 11:40 51°36.919 2°32.268 -999 -999 -999 -999 -999
2007-04-04 11:41 51°36.9 2°32.252 -999 -999 -999 -999 -999
2007-04-04 11:42 51°36.881 2°32.235 -999 -999 -999 -999 -999
2007-04-04 11:43 51°36.87 2°32.206 -999 -999 -999 -999 -999
2007-04-04 11:44 51°36.923 2°32.207 -999 -999 -999 -999 -999
2007-04-04 11:45 51°36.985 2°32.408 -999 -999 -999 -999 -999
2007-04-04 11:46 51°37.029 2°32.457 -999 -999 -999 -999 -999
2007-04-04 11:47 51°37.024 2°32.469 -999 -999 -999 -999 -999
2007-04-04 11:48 51°37.009 2°32.468 -999 -999 -999 -999 -999
2007-04-04 11:49 51°36.992 2°32.458 -999 -999 -999 -999 -999
2007-04-04 11:50 51°36.974 2°32.448 -999 -999 -999 -999 -999
2007-04-04 11:51 51°36.957 2°32.435 -999 -999 -999 -999 -999
2007-04-04 11:52 51°36.905 2°32.437 -999 -999 -999 -999 -999
2007-04-04 11:53 51°36.867 2°32.302 -999 -999 -999 -999 -999
2007-04-04 11:54 51°36.98 2°32.201 -999 -999 -999 -999 -999
2007-04-04 11:55 51°37.158 2°32.064 -999 -999 -999 -999 -999
2007-04-04 11:56 51°37.34 2°31.922 -999 -999 -999 -999 -999
2007-04-04 11:57 51°37.526 2°31.787 -999 -999 -999 -999 -999
2007-04-04 11:58 51°37.7 2°31.658 -999 -999 -999 -999 -999
2007-04-04 11:59 51°37.792 2°31.668 -999 -999 -999 -999 -999
2007-04-04 12:00 51°37.834 2°31.724 -999 -999 -999 -999 -999
2007-04-04 12:01 51°37.879 2°31.781 -999 -999 -999 -999 -999
2007-04-04 12:02 51°37.908 2°31.806 -999 -999 -999 -999 -999
2007-04-04 12:03 51°37.907 2°31.798 -999 -999 -999 -999 -999
2007-04-04 12:04 51°37.898 2°31.787 -999 -999 -999 -999 -999
2007-04-04 12:05 51°37.886 2°31.778 -999 -999 -999 -999 -999
2007-04-04 12:06 51°37.872 2°31.77 -999 -999 -999 -999 -999
2007-04-04 12:07 51°37.857 2°31.764 -999 -999 -999 -999 -999
2007-04-04 12:08 51°37.843 2°31.762 -999 -999 -999 -999 -999
2007-04-04 12:09 51°37.828 2°31.761 -999 -999 -999 -999 -999
2007-04-04 12:10 51°37.833 2°31.714 -999 -999 -999 -999 -999
2007-04-04 12:11 51°37.903 2°31.672 -999 -999 -999 -999 -999
2007-04-04 12:12 51°38.056 2°31.56 -999 -999 -999 -999 -999
2007-04-04 12:13 51°38.221 2°31.444 -999 -999 -999 -999 -999
2007-04-04 12:14 51°38.39 2°31.332 -999 -999 -999 -999 -999
2007-04-04 12:15 51°38.55 2°31.229 -999 -999 -999 -999 -999
2007-04-04 12:16 51°38.625 2°31.262 -999 -999 -999 -999 -999
2007-04-04 12:17 51°38.684 2°31.338 -999 -999 -999 -999 -999
2007-04-04 12:18 51°38.748 2°31.399 -999 -999 -999 -999 -999
2007-04-04 12:19 51°38.758 2°31.441 -999 -999 -999 -999 -999
2007-04-04 12:20 51°38.748 2°31.453 -999 -999 -999 -999 -999
2007-04-04 12:21 51°38.735 2°31.455 -999 -999 -999 -999 -999
2007-04-04 12:22 51°38.725 2°31.471 -999 -999 -999 -999 -999
2007-04-04 12:23 51°38.728 2°31.581 -999 -999 -999 -999 -999
2007-04-04 12:24 51°38.709 2°31.912 -999 -999 -999 -999 -999
2007-04-04 12:25 51°38.677 2°32.263 -999 -999 -999 -999 -999
2007-04-04 12:26 51°38.661 2°32.575 -999 -999 -999 -999 -999
2007-04-04 12:27 51°38.71 2°32.712 -999 -999 -999 -999 -999
2007-04-04 12:28 51°38.746 2°32.803 -999 -999 -999 -999 -999
2007-04-04 12:29 51°38.753 2°32.859 -999 -999 -999 -999 -999
2007-04-04 12:30 51°38.744 2°32.877 -999 -999 -999 -999 -999
2007-04-04 12:31 51°38.733 2°32.889 -999 -999 -999 -999 -999
2007-04-04 12:32 51°38.723 2°32.898 -999 -999 -999 -999 -999
2007-04-04 12:33 51°38.714 2°32.904 -999 -999 -999 -999 -999
2007-04-04 12:34 51°38.706 2°32.908 -999 -999 -999 -999 -999
2007-04-04 12:35 51°38.699 2°32.913 -999 -999 -999 -999 -999
2007-04-04 12:36 51°38.692 2°32.916 -999 -999 -999 -999 -999
2007-04-04 12:37 51°38.684 2°32.92 -999 -999 -999 -999 -999
2007-04-04 12:38 51°38.673 2°32.941 -999 -999 -999 -999 -999
2007-04-04 12:39 51°38.682 2°33.019 -999 -999 -999 -999 -999
2007-04-04 12:40 51°38.772 2°33.042 -999 -999 -999 -999 -999
2007-04-04 12:41 51°38.97 2°33.123 -999 -999 -999 -999 -999
2007-04-04 12:42 51°39.173 2°33.246 -999 -999 -999 -999 -999
2007-04-04 12:43 51°39.374 2°33.368 -999 -999 -999 -999 -999
2007-04-04 12:44 51°39.508 2°33.448 -999 -999 -999 -999 -999
2007-04-04 12:45 51°39.579 2°33.497 -999 -999 -999 -999 -999
2007-04-04 12:46 51°39.621 2°33.544 -999 -999 -999 -999 -999
2007-04-04 12:47 51°39.652 2°33.555 -999 -999 -999 -999 -999
2007-04-04 12:48 51°39.659 2°33.556 -999 -999 -999 -999 -999
2007-04-04 12:49 51°39.661 2°33.558 -999 -999 -999 -999 -999
2007-04-04 12:50 51°39.662 2°33.56 -999 -999 -999 -999 -999
2007-04-04 12:51 51°39.677 2°33.55 -999 -999 -999 -999 -999
2007-04-04 12:52 51°39.754 2°33.567 -999 -999 -999 -999 -999
2007-04-04 12:53 51°39.945 2°33.658 -999 -999 -999 -999 -999
2007-04-04 12:54 51°40.143 2°33.807 -999 -999 -999 -999 -999
2007-04-04 12:55 51°40.336 2°33.957 -999 -999 -999 -999 -999
2007-04-04 12:56 51°40.444 2°34.049 -999 -999 -999 -999 -999
2007-04-04 12:57 51°40.501 2°34.121 -999 -999 -999 -999 -999
2007-04-04 12:58 51°40.52 2°34.146 -999 -999 -999 -999 -999
2007-04-04 12:59 51°40.52 2°34.156 -999 -999 -999 -999 -999
2007-04-04 13:00 51°40.509 2°34.161 -999 -999 -999 -999 -999
2007-04-04 13:01 51°40.494 2°34.173 -999 -999 -999 -999 -999
2007-04-04 13:02 51°40.494 2°34.173 -999 -999 -999 -999 -999
2007-04-04 13:03 51°40.474 2°34.118 -999 -999 -999 -999 -999
2007-04-04 13:04 51°40.335 2°34.033 -999 -999 -999 -999 -999
2007-04-04 13:05 51°40.146 2°33.902 -999 -999 -999 -999 -999
2007-04-04 13:06 51°39.956 2°33.766 -999 -999 -999 -999 -999
2007-04-04 13:07 51°39.767 2°33.632 -999 -999 -999 -999 -999
2007-04-04 13:08 51°39.579 2°33.503 -999 -999 -999 -999 -999
2007-04-04 13:09 51°39.389 2°33.371 -999 -999 -999 -999 -999
2007-04-04 13:10 51°39.194 2°33.243 -999 -999 -999 -999 -999
2007-04-04 13:11 51°39.002 2°33.122 -999 -999 -999 -999 -999
2007-04-04 13:12 51°38.81 2°33.005 -999 -999 -999 -999 -999
2007-04-04 13:13 51°38.616 2°32.881 -999 -999 -999 -999 -999
2007-04-04 13:14 51°38.415 2°32.784 -999 -999 -999 -999 -999
2007-04-04 13:15 51°38.219 2°32.685 -999 -999 -999 -999 -999
2007-04-04 13:16 51°38.027 2°32.577 -999 -999 -999 -999 -999
2007-04-04 13:17 51°37.832 2°32.473 -999 -999 -999 -999 -999
2007-04-04 13:18 51°37.636 2°32.369 -999 -999 -999 -999 -999
2007-04-04 13:19 51°37.437 2°32.265 -999 -999 -999 -999 -999
2007-04-04 13:20 51°37.242 2°32.162 -999 -999 -999 -999 -999
2007-04-04 13:21 51°37.048 2°32.045 -999 -999 -999 -999 -999
2007-04-04 13:22 51°36.854 2°31.947 -999 -999 -999 -999 -999
2007-04-04 13:23 51°36.661 2°31.844 -999 -999 -999 -999 -999
2007-04-04 13:24 51°36.47 2°31.741 -999 -999 -999 -999 -999
2007-04-04 13:25 51°36.274 2°31.638 -999 -999 -999 -999 -999
2007-04-04 13:26 51°36.078 2°31.533 -999 -999 -999 -999 -999
2007-04-04 13:27 51°35.884 2°31.418 -999 -999 -999 -999 -999
2007-04-04 13:28 51°35.689 2°31.308 -999 -999 -999 -999 -999
2007-04-04 13:29 51°35.495 2°31.199 -999 -999 -999 -999 -999
2007-04-04 13:30 51°35.302 2°31.087 -999 -999 -999 -999 -999
2007-04-04 13:31 51°35.11 2°30.974 -999 -999 -999 -999 -999
2007-04-04 13:32 51°34.914 2°30.876 -999 -999 -999 -999 -999
2007-04-04 13:33 51°34.725 2°30.759 -999 -999 -999 -999 -999
2007-04-04 13:34 51°34.568 2°30.569 -999 -999 -999 -999 -999
2007-04-04 13:35 51°34.454 2°30.468 -999 -999 -999 -999 -999
2007-04-04 13:36 51°34.377 2°30.395 -999 -999 -999 -999 -999
2007-04-04 13:37 51°34.348 2°30.334 -999 -999 -999 -999 -999
2007-04-04 13:38 51°34.34 2°30.315 -999 -999 -999 -999 -999
2007-04-04 13:39 51°34.348 2°30.322 -999 -999 -999 -999 -999
2007-04-04 13:40 51°34.355 2°30.334 -999 -999 -999 -999 -999
2007-04-04 13:41 51°34.359 2°30.351 -999 -999 -999 -999 -999
2007-04-04 13:42 51°34.361 2°30.371 -999 -999 -999 -999 -999
2007-04-04 13:43 51°34.363 2°30.389 -999 -999 -999 -999 -999
2007-04-04 13:44 51°34.352 2°30.339 -999 -999 -999 -999 -999
2007-04-04 13:45 51°34.26 2°30.126 -999 -999 -999 -999 -999
2007-04-04 13:46 51°34.122 2°29.899 -999 -999 -999 -999 -999
2007-04-04 13:47 51°33.949 2°29.743 -999 -999 -999 -999 -999
2007-04-04 13:48 51°33.76 2°29.632 -999 -999 -999 -999 -999
2007-04-04 13:49 51°33.624 2°29.548 -999 -999 -999 -999 -999
2007-04-04 13:50 51°33.526 2°29.514 -999 -999 -999 -999 -999
2007-04-04 13:51 51°33.48 2°29.462 -999 -999 -999 -999 -999
2007-04-04 13:52 51°33.473 2°29.47 -999 -999 -999 -999 -999
2007-04-04 13:53 51°33.461 2°29.479 -999 -999 -999 -999 -999
2007-04-04 13:54 51°33.449 2°29.482 -999 -999 -999 -999 -999
2007-04-04 13:55 51°33.441 2°29.484 -999 -999 -999 -999 -999
2007-04-04 13:56 51°33.438 2°29.483 -999 -999 -999 -999 -999
2007-04-04 13:57 51°33.443 2°29.483 -999 -999 -999 -999 -999
2007-04-04 13:58 51°33.438 2°29.456 -999 -999 -999 -999 -999
2007-04-04 13:59 51°33.35 2°29.395 -999 -999 -999 -999 -999
2007-04-04 14:00 51°33.212 2°29.191 -999 -999 -999 -999 -999
2007-04-04 14:01 51°33.062 2°28.983 -999 -999 -999 -999 -999
2007-04-04 14:02 51°32.913 2°28.79 -999 -999 -999 -999 -999
2007-04-04 14:03 51°32.783 2°28.65 -999 -999 -999 -999 -999
2007-04-04 14:04 51°32.722 2°28.571 -999 -999 -999 -999 -999
2007-04-04 14:05 51°32.684 2°28.548 -999 -999 -999 -999 -999
2007-04-04 14:06 51°32.679 2°28.528 -999 -999 -999 -999 -999
2007-04-04 14:07 51°32.687 2°28.521 -999 -999 -999 -999 -999
2007-04-04 14:08 51°32.701 2°28.526 -999 -999 -999 -999 -999
2007-04-04 14:09 51°32.716 2°28.538 -999 -999 -999 -999 -999
2007-04-04 14:10 51°32.729 2°28.557 -999 -999 -999 -999 -999
2007-04-04 14:11 51°32.739 2°28.579 -999 -999 -999 -999 -999
2007-04-04 14:12 51°32.755 2°28.582 -999 -999 -999 -999 -999
2007-04-04 14:13 51°32.739 2°28.54 -999 -999 -999 -999 -999
2007-04-04 14:14 51°32.699 2°28.625 -999 -999 -999 -999 -999
2007-04-04 14:15 51°32.684 2°28.869 -999 -999 -999 -999 -999
2007-04-04 14:16 51°32.693 2°29.239 -999 -999 -999 -999 -999
2007-04-04 14:17 51°32.74 2°29.607 -999 -999 -999 -999 -999
2007-04-04 14:18 51°32.803 2°29.973 -999 -999 -999 -999 -999
2007-04-04 14:19 51°32.861 2°30.339 -999 -999 -999 -999 -999
2007-04-04 14:20 51°32.916 2°30.699 -999 -999 -999 -999 -999
2007-04-04 14:21 51°32.833 2°30.908 -999 -999 -999 -999 -999
2007-04-04 14:22 51°32.737 2°31.043 -999 -999 -999 -999 -999
2007-04-04 14:23 51°32.675 2°31.061 -999 -999 -999 -999 -999
2007-04-04 14:24 51°32.656 2°31.083 -999 -999 -999 -999 -999
2007-04-04 14:25 51°32.649 2°31.103 -999 -999 -999 -999 -999
2007-04-04 14:26 51°32.638 2°31.129 -999 -999 -999 -999 -999
2007-04-04 14:27 51°32.609 2°31.158 -999 -999 -999 -999 -999
2007-04-04 14:28 51°32.554 2°31.084 -999 -999 -999 -999 -999
2007-04-04 14:29 51°32.437 2°30.892 -999 -999 -999 -999 -999
2007-04-04 14:30 51°32.301 2°30.658 -999 -999 -999 -999 -999
2007-04-04 14:31 51°32.165 2°30.424 -999 -999 -999 -999 -999
2007-04-04 14:32 51°32.027 2°30.192 -999 -999 -999 -999 -999
2007-04-04 14:33 51°31.907 2°29.966 -999 -999 -999 -999 -999
2007-04-04 14:34 51°31.844 2°29.795 -999 -999 -999 -999 -999
2007-04-04 14:35 51°31.805 2°29.725 -999 -999 -999 -999 -999
2007-04-04 14:36 51°31.788 2°29.656 -999 -999 -999 -999 -999
2007-04-04 14:37 51°31.759 2°29.612 -999 -999 -999 -999 -999
2007-04-04 14:38 51°31.758 2°29.589 -999 -999 -999 -999 -999
2007-04-04 14:39 51°31.762 2°29.582 -999 -999 -999 -999 -999
2007-04-04 14:40 51°31.773 2°29.579 -999 -999 -999 -999 -999
2007-04-04 14:41 51°31.808 2°29.552 -999 -999 -999 -999 -999
2007-04-04 14:42 51°31.87 2°29.563 -999 -999 -999 -999 -999
2007-04-04 14:43 51°31.904 2°29.662 -999 -999 -999 -999 -999
2007-04-04 14:44 51°31.849 2°29.816 -999 -999 -999 -999 -999
2007-04-04 14:45 51°31.741 2°30.089 -999 -999 -999 -999 -999
2007-04-04 14:46 51°31.618 2°30.389 -999 -999 -999 -999 -999
2007-04-04 14:47 51°31.492 2°30.684 -999 -999 -999 -999 -999
2007-04-04 14:48 51°31.369 2°30.981 -999 -999 -999 -999 -999
2007-04-04 14:49 51°31.245 2°31.27 -999 -999 -999 -999 -999
2007-04-04 14:50 51°31.122 2°31.565 -999 -999 -999 -999 -999
2007-04-04 14:51 51°30.993 2°31.813 -999 -999 -999 -999 -999
2007-04-04 14:52 51°30.872 2°31.812 -999 -999 -999 -999 -999
2007-04-04 14:53 51°30.803 2°31.815 -999 -999 -999 -999 -999
2007-04-04 14:54 51°30.766 2°31.783 -999 -999 -999 -999 -999
2007-04-04 14:55 51°30.727 2°31.752 -999 -999 -999 -999 -999
2007-04-04 14:56 51°30.712 2°31.745 -999 -999 -999 -999 -999
2007-04-04 14:57 51°30.712 2°31.736 -999 -999 -999 -999 -999
2007-04-04 14:58 51°30.717 2°31.732 -999 -999 -999 -999 -999
2007-04-04 14:59 51°30.726 2°31.733 -999 -999 -999 -999 -999
2007-04-04 15:00 51°30.739 2°31.739 -999 -999 -999 -999 -999
2007-04-04 15:01 51°30.749 2°31.754 -999 -999 -999 -999 -999
2007-04-04 15:02 51°30.762 2°31.752 -999 -999 -999 -999 -999
2007-04-04 15:03 51°30.752 2°31.713 -999 -999 -999 -999 -999
2007-04-04 15:04 51°30.695 2°31.771 -999 -999 -999 -999 -999
2007-04-04 15:05 51°30.56 2°31.935 -999 -999 -999 -999 -999
2007-04-04 15:06 51°30.409 2°32.167 -999 -999 -999 -999 -999
2007-04-04 15:07 51°30.277 2°32.438 -999 -999 -999 -999 -999
2007-04-04 15:08 51°30.155 2°32.727 -999 -999 -999 -999 -999
2007-04-04 15:09 51°30.032 2°33.018 -999 -999 -999 -999 -999
2007-04-04 15:10 51°29.9 2°33.304 -999 -999 -999 -999 -999
2007-04-04 15:11 51°29.767 2°33.598 -999 -999 -999 -999 -999
2007-04-04 15:12 51°29.631 2°33.891 -999 -999 -999 -999 -999
2007-04-04 15:13 51°29.49 2°34.173 -999 -999 -999 -999 -999
2007-04-04 15:14 51°29.352 2°34.45 -999 -999 -999 -999 -999
2007-04-04 15:15 51°29.22 2°34.727 -999 -999 -999 -999 -999
2007-04-04 15:16 51°29.089 2°34.992 -999 -999 -999 -999 -999
2007-04-04 15:17 51°28.957 2°35.272 -999 -999 -999 -999 -999
2007-04-04 15:18 51°28.823 2°35.548 -999 -999 -999 -999 -999
2007-04-04 15:19 51°28.695 2°35.831 -999 -999 -999 -999 -999
2007-04-04 15:20 51°28.565 2°36.118 -999 -999 -999 -999 -999
2007-04-04 15:21 51°28.427 2°36.397 -999 -999 -999 -999 -999
2007-04-04 15:22 51°28.286 2°36.673 -999 -999 -999 -999 -999
2007-04-04 15:23 51°28.143 2°36.948 -999 -999 -999 -999 -999